Addison, Vermont
Current Conditions -  °F | °C
As of 1:15 PM on Thursday 23 Oct 2014 (Local Time) from K6B0 Reporting Station
Heavy Rain Heavy Rain  
Wind Chill: 38°   Ceiling: 600
Heat Index: 43°   Visibility: 5mi
Dew Point: 43°   Wind: 10mph
Humidity: 100%   Direction: 10°N
Pressure: 29.9"   Gusts: 22mph
Location:  44.0804°N, 73.3324°W
Report Text: K6B0 231715Z AUTO 01009G19KT 5SM +RA OVC006 06/06 A2990 RMK AO2 P0001 T00630063
Loading
Personal Weather Stations






























Interactive Weather Map
Tropical Storm Tracking
New forecast layout! Learn more

10-Day Weather Forecast

Advertisements
Track Severe Weather on mobile